sensor_id;sensor_type;location;lat;lon;timestamp;pressure;altitude;pressure_sealevel;temperature;humidity
19783;BME280;10051;40.294;-3.754;2022-10-30T00:00:02;94387.94;;;18.68;43.52
19783;BME280;10051;40.294;-3.754;2022-10-30T00:02:28;94413.09;;;18.79;43.68
19783;BME280;10051;40.294;-3.754;2022-10-30T00:04:53;94352.09;;;18.44;43.93
19783;BME280;10051;40.294;-3.754;2022-10-30T00:07:19;94340.63;;;18.52;43.83
19783;BME280;10051;40.294;-3.754;2022-10-30T00:09:44;94351.84;;;18.58;43.88
19783;BME280;10051;40.294;-3.754;2022-10-30T00:12:09;94364.69;;;18.77;43.97
19783;BME280;10051;40.294;-3.754;2022-10-30T00:14:35;94413.84;;;19.10;44.02
19783;BME280;10051;40.294;-3.754;2022-10-30T00:17:00;94349.00;;;18.63;43.93
19783;BME280;10051;40.294;-3.754;2022-10-30T00:19:26;94386.28;;;18.63;44.39
19783;BME280;10051;40.294;-3.754;2022-10-30T00:21:51;94366.13;;;18.53;44.89
19783;BME280;10051;40.294;-3.754;2022-10-30T00:24:17;94330.47;;;18.46;44.75
19783;BME280;10051;40.294;-3.754;2022-10-30T00:26:42;94412.00;;;18.80;44.82
19783;BME280;10051;40.294;-3.754;2022-10-30T00:29:08;94390.34;;;18.61;45.27
19783;BME280;10051;40.294;-3.754;2022-10-30T00:31:33;94415.38;;;18.68;45.41
19783;BME280;10051;40.294;-3.754;2022-10-30T00:33:58;94367.00;;;18.36;45.17
19783;BME280;10051;40.294;-3.754;2022-10-30T00:36:24;94291.25;;;17.82;45.03
19783;BME280;10051;40.294;-3.754;2022-10-30T00:38:49;94410.50;;;18.70;44.94
19783;BME280;10051;40.294;-3.754;2022-10-30T00:41:20;94400.97;;;18.69;45.01
19783;BME280;10051;40.294;-3.754;2022-10-30T00:43:46;94371.03;;;18.42;45.08
19783;BME280;10051;40.294;-3.754;2022-10-30T00:49:11;94372.84;;;18.30;45.33
19783;BME280;10051;40.294;-3.754;2022-10-30T00:51:46;94324.44;;;17.76;45.90
19783;BME280;10051;40.294;-3.754;2022-10-30T00:54:15;94405.13;;;18.28;45.96
19783;BME280;10051;40.294;-3.754;2022-10-30T00:56:42;94402.47;;;18.28;45.81
19783;BME280;10051;40.294;-3.754;2022-10-30T00:59:12;94375.00;;;18.06;45.67
19783;BME280;10051;40.294;-3.754;2022-10-30T01:01:42;94408.88;;;18.27;45.88
19783;BME280;10051;40.294;-3.754;2022-10-30T01:04:10;94391.13;;;18.10;45.75
19783;BME280;10051;40.294;-3.754;2022-10-30T01:06:39;94412.19;;;18.24;46.05
19783;BME280;10051;40.294;-3.754;2022-10-30T01:09:05;94343.53;;;17.69;45.97
19783;BME280;10051;40.294;-3.754;2022-10-30T01:11:31;94401.78;;;18.01;46.44
19783;BME280;10051;40.294;-3.754;2022-10-30T01:14:02;94289.59;;;17.21;46.42
19783;BME280;10051;40.294;-3.754;2022-10-30T01:19:41;94408.34;;;17.95;46.59
19783;BME280;10051;40.294;-3.754;2022-10-30T01:33:07;94388.56;;;17.75;46.56
19783;BME280;10051;40.294;-3.754;2022-10-30T01:40:58;94366.56;;;17.65;46.63
19783;BME280;10051;40.294;-3.754;2022-10-30T01:43:24;94349.50;;;17.58;46.62
19783;BME280;10051;40.294;-3.754;2022-10-30T01:46:11;94400.88;;;17.88;46.57
19783;BME280;10051;40.294;-3.754;2022-10-30T01:52:01;94357.63;;;17.70;46.19
19783;BME280;10051;40.294;-3.754;2022-10-30T01:55:12;94396.00;;;17.99;46.08
19783;BME280;10051;40.294;-3.754;2022-10-30T01:57:45;94387.09;;;17.86;46.28
19783;BME280;10051;40.294;-3.754;2022-10-30T02:00:15;94379.47;;;17.84;46.18
19783;BME280;10051;40.294;-3.754;2022-10-30T02:02:41;94368.72;;;17.72;46.50
19783;BME280;10051;40.294;-3.754;2022-10-30T02:05:09;94384.78;;;17.76;46.50
19783;BME280;10051;40.294;-3.754;2022-10-30T02:07:36;94362.97;;;17.61;46.29
19783;BME280;10051;40.294;-3.754;2022-10-30T02:10:03;94400.88;;;17.88;46.37
19783;BME280;10051;40.294;-3.754;2022-10-30T02:12:29;94402.44;;;17.89;46.40
19783;BME280;10051;40.294;-3.754;2022-10-30T02:14:57;94402.94;;;17.82;46.67
19783;BME280;10051;40.294;-3.754;2022-10-30T02:17:25;94402.19;;;17.73;46.99
19783;BME280;10051;40.294;-3.754;2022-10-30T02:19:51;94397.03;;;17.68;47.13
19783;BME280;10051;40.294;-3.754;2022-10-30T02:22:17;94375.63;;;17.56;47.12
19783;BME280;10051;40.294;-3.754;2022-10-30T02:24:43;94383.59;;;17.64;47.46
19783;BME280;10051;40.294;-3.754;2022-10-30T02:27:09;94351.78;;;17.38;47.59
19783;BME280;10051;40.294;-3.754;2022-10-30T02:29:34;94399.56;;;17.64;47.72
19783;BME280;10051;40.294;-3.754;2022-10-30T02:32:00;94337.72;;;17.29;47.50
19783;BME280;10051;40.294;-3.754;2022-10-30T02:34:26;94346.28;;;17.43;47.40
19783;BME280;10051;40.294;-3.754;2022-10-30T02:36:51;94389.34;;;17.75;47.46
19783;BME280;10051;40.294;-3.754;2022-10-30T02:39:17;94386.69;;;17.75;47.40
19783;BME280;10051;40.294;-3.754;2022-10-30T02:41:44;94349.50;;;17.58;47.50
19783;BME280;10051;40.294;-3.754;2022-10-30T02:44:09;94292.72;;;17.23;47.41
19783;BME280;10051;40.294;-3.754;2022-10-30T02:46:35;94295.03;;;17.25;47.51
19783;BME280;10051;40.294;-3.754;2022-10-30T02:49:00;94379.47;;;17.84;47.92
19783;BME280;10051;40.294;-3.754;2022-10-30T02:51:27;94372.13;;;17.81;47.91
19783;BME280;10051;40.294;-3.754;2022-10-30T02:53:52;94381.03;;;17.86;48.08
19783;BME280;10051;40.294;-3.754;2022-10-30T02:56:18;94339.00;;;17.70;47.92
19783;BME280;10051;40.294;-3.754;2022-10-30T02:58:43;94273.31;;;17.23;48.19
19783;BME280;10051;40.294;-3.754;2022-10-30T03:01:18;94345.69;;;17.76;48.02
19783;BME280;10051;40.294;-3.754;2022-10-30T03:03:44;94352.47;;;17.65;48.05
19783;BME280;10051;40.294;-3.754;2022-10-30T03:06:13;94366.84;;;17.64;48.50
19783;BME280;10051;40.294;-3.754;2022-10-30T03:08:40;94364.38;;;17.59;48.77
19783;BME280;10051;40.294;-3.754;2022-10-30T03:11:08;94372.50;;;17.62;48.92
19783;BME280;10051;40.294;-3.754;2022-10-30T03:13:34;94371.53;;;17.67;48.87
19783;BME280;10051;40.294;-3.754;2022-10-30T03:16:01;94375.88;;;17.72;48.75
19783;BME280;10051;40.294;-3.754;2022-10-30T03:18:26;94333.34;;;17.33;48.85
19783;BME280;10051;40.294;-3.754;2022-10-30T03:20:59;94377.03;;;17.62;49.02
19783;BME280;10051;40.294;-3.754;2022-10-30T03:23:26;94371.75;;;17.44;49.47
19783;BME280;10051;40.294;-3.754;2022-10-30T03:25:53;94316.53;;;17.02;49.66
19783;BME280;10051;40.294;-3.754;2022-10-30T03:28:20;94344.00;;;17.15;49.80
19783;BME280;10051;40.294;-3.754;2022-10-30T03:30:46;94370.38;;;17.29;50.30
19783;BME280;10051;40.294;-3.754;2022-10-30T03:33:11;94353.06;;;17.14;50.27
19783;BME280;10051;40.294;-3.754;2022-10-30T03:35:37;94239.09;;;16.47;50.20
19783;BME280;10051;40.294;-3.754;2022-10-30T03:38:03;94334.47;;;17.05;50.17
19783;BME280;10051;40.294;-3.754;2022-10-30T03:40:28;94345.75;;;17.02;50.64
19783;BME280;10051;40.294;-3.754;2022-10-30T03:42:54;94343.53;;;16.95;51.10
19783;BME280;10051;40.294;-3.754;2022-10-30T03:45:19;94361.69;;;17.02;51.67
19783;BME280;10051;40.294;-3.754;2022-10-30T03:47:45;94333.69;;;16.78;51.84
19783;BME280;10051;40.294;-3.754;2022-10-30T03:50:10;94235.03;;;16.06;52.73
19783;BME280;10051;40.294;-3.754;2022-10-30T03:52:35;94342.44;;;16.88;52.16
19783;BME280;10051;40.294;-3.754;2022-10-30T03:55:01;94357.78;;;17.00;52.45
19783;BME280;10051;40.294;-3.754;2022-10-30T03:57:26;94291.72;;;16.54;52.48
19783;BME280;10051;40.294;-3.754;2022-10-30T03:59:52;94365.56;;;17.05;52.38
19783;BME280;10051;40.294;-3.754;2022-10-30T04:02:17;94343.06;;;16.76;52.72
19783;BME280;10051;40.294;-3.754;2022-10-30T04:04:42;94305.75;;;16.63;52.98
19783;BME280;10051;40.294;-3.754;2022-10-30T04:07:08;94298.88;;;16.62;53.00
19783;BME280;10051;40.294;-3.754;2022-10-30T04:09:33;94327.59;;;16.78;52.87
19783;BME280;10051;40.294;-3.754;2022-10-30T04:11:59;94315.88;;;16.79;52.72
19783;BME280;10051;40.294;-3.754;2022-10-30T04:14:24;94347.94;;;17.00;52.98
19783;BME280;10051;40.294;-3.754;2022-10-30T04:16:49;94307.94;;;16.70;53.07
19783;BME280;10051;40.294;-3.754;2022-10-30T04:19:15;94334.00;;;16.94;53.58
19783;BME280;10051;40.294;-3.754;2022-10-30T04:21:40;94344.94;;;17.02;53.75
19783;BME280;10051;40.294;-3.754;2022-10-30T04:24:08;94367.59;;;17.08;54.12
19783;BME280;10051;40.294;-3.754;2022-10-30T04:26:34;94322.13;;;16.65;54.50
19783;BME280;10051;40.294;-3.754;2022-10-30T04:29:00;94370.59;;;16.98;54.65
19783;BME280;10051;40.294;-3.754;2022-10-30T04:31:25;94388.09;;;16.99;55.18
19783;BME280;10051;40.294;-3.754;2022-10-30T04:33:50;94381.03;;;17.03;55.32
19783;BME280;10051;40.294;-3.754;2022-10-30T04:36:16;94390.28;;;16.97;55.88
19783;BME280;10051;40.294;-3.754;2022-10-30T04:38:42;94383.22;;;16.83;56.36
19783;BME280;10051;40.294;-3.754;2022-10-30T04:41:08;94355.25;;;16.59;56.91
19783;BME280;10051;40.294;-3.754;2022-10-30T04:43:33;94405.88;;;16.89;56.77
19783;BME280;10051;40.294;-3.754;2022-10-30T04:46:03;94379.13;;;16.86;56.75
19783;BME280;10051;40.294;-3.754;2022-10-30T04:48:28;94381.03;;;16.85;57.26
19783;BME280;10051;40.294;-3.754;2022-10-30T04:50:57;94410.72;;;16.96;57.39
19783;BME280;10051;40.294;-3.754;2022-10-30T04:53:23;94402.13;;;17.08;57.48
19783;BME280;10051;40.294;-3.754;2022-10-30T04:55:52;94365.56;;;16.87;57.13
19783;BME280;10051;40.294;-3.754;2022-10-30T04:58:17;94370.25;;;16.90;57.46
19783;BME280;10051;40.294;-3.754;2022-10-30T05:00:43;94414.44;;;16.95;57.69
19783;BME280;10051;40.294;-3.754;2022-10-30T05:03:16;94325.25;;;16.32;57.78
19783;BME280;10051;40.294;-3.754;2022-10-30T05:05:42;94362.25;;;16.46;57.83
19783;BME280;10051;40.294;-3.754;2022-10-30T05:08:08;94383.66;;;16.59;57.47
19783;BME280;10051;40.294;-3.754;2022-10-30T05:10:33;94412.59;;;16.95;56.95
19783;BME280;10051;40.294;-3.754;2022-10-30T05:12:59;94325.91;;;16.47;56.84
19783;BME280;10051;40.294;-3.754;2022-10-30T05:15:24;94381.03;;;16.85;56.69
19783;BME280;10051;40.294;-3.754;2022-10-30T05:17:50;94368.38;;;16.82;57.19
19783;BME280;10051;40.294;-3.754;2022-10-30T05:20:17;94407.28;;;16.95;57.51
19783;BME280;10051;40.294;-3.754;2022-10-30T05:22:42;94298.06;;;16.18;57.62
19783;BME280;10051;40.294;-3.754;2022-10-30T05:25:08;94410.25;;;16.85;57.47
19783;BME280;10051;40.294;-3.754;2022-10-30T05:27:33;94401.50;;;16.93;56.76
19783;BME280;10051;40.294;-3.754;2022-10-30T05:29:58;94344.00;;;16.62;56.05
19783;BME280;10051;40.294;-3.754;2022-10-30T05:32:24;94351.50;;;16.78;55.32
19783;BME280;10051;40.294;-3.754;2022-10-30T05:34:49;94410.69;;;17.31;55.03
19783;BME280;10051;40.294;-3.754;2022-10-30T05:37:15;94385.09;;;17.18;54.72
19783;BME280;10051;40.294;-3.754;2022-10-30T05:39:40;94362.44;;;16.85;54.79
19783;BME280;10051;40.294;-3.754;2022-10-30T05:42:06;94353.06;;;17.05;54.64
19783;BME280;10051;40.294;-3.754;2022-10-30T05:44:31;94364.81;;;17.04;54.95
19783;BME280;10051;40.294;-3.754;2022-10-30T05:46:57;94407.13;;;17.36;54.83
19783;BME280;10051;40.294;-3.754;2022-10-30T05:49:22;94368.22;;;17.14;54.81
19783;BME280;10051;40.294;-3.754;2022-10-30T05:51:47;94402.75;;;17.40;54.45
19783;BME280;10051;40.294;-3.754;2022-10-30T05:54:13;94342.94;;;16.99;54.70
19783;BME280;10051;40.294;-3.754;2022-10-30T05:56:38;94352.59;;;16.77;55.84
19783;BME280;10051;40.294;-3.754;2022-10-30T05:59:04;94399.78;;;16.80;56.88
19783;BME280;10051;40.294;-3.754;2022-10-30T06:01:29;94359.31;;;16.48;57.41
19783;BME280;10051;40.294;-3.754;2022-10-30T06:03:56;94353.19;;;16.39;57.51
19783;BME280;10051;40.294;-3.754;2022-10-30T06:06:21;94337.72;;;16.14;57.61
19783;BME280;10051;40.294;-3.754;2022-10-30T06:08:47;94405.22;;;16.66;57.74
19783;BME280;10051;40.294;-3.754;2022-10-30T06:11:12;94364.63;;;16.65;56.92
19783;BME280;10051;40.294;-3.754;2022-10-30T06:13:37;94232.78;;;15.82;56.81
19783;BME280;10051;40.294;-3.754;2022-10-30T06:16:04;94340.25;;;16.63;56.57
19783;BME280;10051;40.294;-3.754;2022-10-30T06:18:30;94405.88;;;17.07;56.52
19783;BME280;10051;40.294;-3.754;2022-10-30T06:20:55;94331.69;;;16.49;56.75
19783;BME280;10051;40.294;-3.754;2022-10-30T06:23:21;94381.94;;;16.80;57.01
19783;BME280;10051;40.294;-3.754;2022-10-30T06:25:46;94372.75;;;16.78;57.21
19783;BME280;10051;40.294;-3.754;2022-10-30T06:28:11;94381.19;;;16.80;57.42
19783;BME280;10051;40.294;-3.754;2022-10-30T06:30:38;94330.41;;;16.46;57.51
19783;BME280;10051;40.294;-3.754;2022-10-30T06:33:04;94384.13;;;16.78;57.44
19783;BME280;10051;40.294;-3.754;2022-10-30T06:35:30;94266.69;;;15.94;57.66
19783;BME280;10051;40.294;-3.754;2022-10-30T06:37:56;94383.53;;;16.73;57.58
19783;BME280;10051;40.294;-3.754;2022-10-30T06:40:25;94393.50;;;16.85;57.54
19783;BME280;10051;40.294;-3.754;2022-10-30T06:42:51;94392.13;;;17.05;56.96
19783;BME280;10051;40.294;-3.754;2022-10-30T06:45:18;94382.59;;;16.95;57.34
19783;BME280;10051;40.294;-3.754;2022-10-30T06:47:45;94370.72;;;16.75;57.45
19783;BME280;10051;40.294;-3.754;2022-10-30T06:50:13;94349.47;;;16.48;57.91
19783;BME280;10051;40.294;-3.754;2022-10-30T06:52:39;94368.66;;;16.80;57.44
19783;BME280;10051;40.294;-3.754;2022-10-30T06:55:05;94386.66;;;16.92;57.34
19783;BME280;10051;40.294;-3.754;2022-10-30T06:57:31;94362.28;;;16.64;57.76
19783;BME280;10051;40.294;-3.754;2022-10-30T06:59:57;94327.13;;;16.32;57.96
19783;BME280;10051;40.294;-3.754;2022-10-30T07:02:22;94373.03;;;16.68;58.05
19783;BME280;10051;40.294;-3.754;2022-10-30T07:04:47;94358.06;;;16.54;57.89
19783;BME280;10051;40.294;-3.754;2022-10-30T07:07:13;94404.28;;;16.71;58.65
19783;BME280;10051;40.294;-3.754;2022-10-30T07:09:39;94400.06;;;16.70;58.86
19783;BME280;10051;40.294;-3.754;2022-10-30T07:12:06;94401.19;;;16.77;58.86
19783;BME280;10051;40.294;-3.754;2022-10-30T07:14:32;94396.47;;;16.65;59.04
19783;BME280;10051;40.294;-3.754;2022-10-30T07:16:57;94385.69;;;16.62;58.89
19783;BME280;10051;40.294;-3.754;2022-10-30T07:19:23;94416.00;;;16.70;59.60
19783;BME280;10051;40.294;-3.754;2022-10-30T07:21:48;94393.34;;;16.63;59.44
19783;BME280;10051;40.294;-3.754;2022-10-30T07:24:14;94345.38;;;16.25;59.96
19783;BME280;10051;40.294;-3.754;2022-10-30T07:26:40;94345.53;;;16.28;59.91
19783;BME280;10051;40.294;-3.754;2022-10-30T07:29:06;94406.94;;;16.62;60.15
19783;BME280;10051;40.294;-3.754;2022-10-30T07:31:31;94433.66;;;16.74;60.28
19783;BME280;10051;40.294;-3.754;2022-10-30T07:33:57;94414.91;;;16.71;60.02
19783;BME280;10051;40.294;-3.754;2022-10-30T07:36:22;94394.13;;;16.55;60.07
19783;BME280;10051;40.294;-3.754;2022-10-30T07:38:49;94379.59;;;16.44;60.15
19783;BME280;10051;40.294;-3.754;2022-10-30T07:41:16;94378.78;;;16.43;60.22
19783;BME280;10051;40.294;-3.754;2022-10-30T07:43:42;94456.19;;;17.12;59.73
19783;BME280;10051;40.294;-3.754;2022-10-30T07:46:07;94414.00;;;16.84;59.70
19783;BME280;10051;40.294;-3.754;2022-10-30T07:48:33;94442.31;;;16.98;59.58
19783;BME280;10051;40.294;-3.754;2022-10-30T07:50:58;94464.63;;;17.23;59.36
19783;BME280;10051;40.294;-3.754;2022-10-30T07:53:23;94413.81;;;16.80;59.39
19783;BME280;10051;40.294;-3.754;2022-10-30T07:55:49;94460.09;;;17.06;59.00
19783;BME280;10051;40.294;-3.754;2022-10-30T07:58:14;94464.19;;;17.21;58.98
19783;BME280;10051;40.294;-3.754;2022-10-30T08:00:40;94466.03;;;17.29;58.10
19783;BME280;10051;40.294;-3.754;2022-10-30T08:03:05;94465.41;;;17.32;58.25
19783;BME280;10051;40.294;-3.754;2022-10-30T08:05:31;94452.75;;;17.20;58.40
19783;BME280;10051;40.294;-3.754;2022-10-30T08:07:56;94487.78;;;17.22;59.02
19783;BME280;10051;40.294;-3.754;2022-10-30T08:10:22;94493.72;;;17.19;59.63
19783;BME280;10051;40.294;-3.754;2022-10-30T08:12:48;94496.84;;;17.21;59.26
19783;BME280;10051;40.294;-3.754;2022-10-30T08:15:13;94438.50;;;16.90;59.21
19783;BME280;10051;40.294;-3.754;2022-10-30T08:17:43;94361.16;;;16.39;59.61
19783;BME280;10051;40.294;-3.754;2022-10-30T08:20:11;94511.53;;;17.28;59.67
19783;BME280;10051;40.294;-3.754;2022-10-30T08:23:03;94496.53;;;17.14;60.01
19783;BME280;10051;40.294;-3.754;2022-10-30T08:25:29;94471.47;;;16.80;60.76
19783;BME280;10051;40.294;-3.754;2022-10-30T08:28:00;94510.13;;;17.21;60.48
19783;BME280;10051;40.294;-3.754;2022-10-30T08:30:28;94467.28;;;17.14;59.64
19783;BME280;10051;40.294;-3.754;2022-10-30T08:32:58;94479.03;;;17.39;59.07
19783;BME280;10051;40.294;-3.754;2022-10-30T08:35:24;94461.53;;;17.30;58.77
19783;BME280;10051;40.294;-3.754;2022-10-30T08:37:53;94506.06;;;17.59;59.04
19783;BME280;10051;40.294;-3.754;2022-10-30T08:40:19;94440.88;;;17.09;59.67
19783;BME280;10051;40.294;-3.754;2022-10-30T08:42:52;94478.09;;;17.27;59.86
19783;BME280;10051;40.294;-3.754;2022-10-30T08:45:19;94372.09;;;16.63;59.50
19783;BME280;10051;40.294;-3.754;2022-10-30T08:47:45;94445.88;;;17.02;59.36
19783;BME280;10051;40.294;-3.754;2022-10-30T08:50:11;94478.25;;;17.21;59.42
19783;BME280;10051;40.294;-3.754;2022-10-30T08:52:36;94382.25;;;16.53;60.01
19783;BME280;10051;40.294;-3.754;2022-10-30T08:55:02;94485.91;;;17.14;60.25
19783;BME280;10051;40.294;-3.754;2022-10-30T08:57:27;94462.00;;;17.05;59.87
19783;BME280;10051;40.294;-3.754;2022-10-30T08:59:53;94407.72;;;16.62;60.20
19783;BME280;10051;40.294;-3.754;2022-10-30T09:02:18;94489.50;;;17.18;59.91
19783;BME280;10051;40.294;-3.754;2022-10-30T09:04:43;94442.25;;;16.80;59.84
19783;BME280;10051;40.294;-3.754;2022-10-30T09:07:09;94504.19;;;17.16;60.70
19783;BME280;10051;40.294;-3.754;2022-10-30T09:09:34;94392.53;;;16.45;60.51
19783;BME280;10051;40.294;-3.754;2022-10-30T09:12:00;94488.41;;;17.19;59.91
19783;BME280;10051;40.294;-3.754;2022-10-30T09:14:25;94464.16;;;17.12;59.47
19783;BME280;10051;40.294;-3.754;2022-10-30T09:16:51;94462.78;;;17.23;58.72
19783;BME280;10051;40.294;-3.754;2022-10-30T09:19:18;94540.63;;;17.68;59.01
19783;BME280;10051;40.294;-3.754;2022-10-30T09:21:43;94476.84;;;17.33;58.83
19783;BME280;10051;40.294;-3.754;2022-10-30T09:24:09;94509.34;;;17.65;59.08
19783;BME280;10051;40.294;-3.754;2022-10-30T09:26:34;94513.09;;;17.64;59.09
19783;BME280;10051;40.294;-3.754;2022-10-30T09:28:59;94500.28;;;17.48;59.04
19783;BME280;10051;40.294;-3.754;2022-10-30T09:31:25;94490.44;;;17.22;59.09
19783;BME280;10051;40.294;-3.754;2022-10-30T09:33:50;94441.47;;;16.88;59.29
19783;BME280;10051;40.294;-3.754;2022-10-30T09:36:16;94460.91;;;16.98;59.54
19783;BME280;10051;40.294;-3.754;2022-10-30T09:38:42;94543.91;;;17.56;60.14
19783;BME280;10051;40.294;-3.754;2022-10-30T09:44:11;94528.88;;;17.69;60.15
19783;BME280;10051;40.294;-3.754;2022-10-30T09:46:58;94535.63;;;17.75;59.52
19783;BME280;10051;40.294;-3.754;2022-10-30T09:52:38;94528.22;;;17.98;58.73
19783;BME280;10051;40.294;-3.754;2022-10-30T10:00:33;94541.19;;;18.18;58.94
19783;BME280;10051;40.294;-3.754;2022-10-30T10:05:57;94536.72;;;18.39;58.37
19783;BME280;10051;40.294;-3.754;2022-10-30T10:08:37;94467.03;;;17.90;58.40
19783;BME280;10051;40.294;-3.754;2022-10-30T10:11:14;94514.59;;;18.18;58.39
19783;BME280;10051;40.294;-3.754;2022-10-30T10:13:46;94541.28;;;18.39;58.59
19783;BME280;10051;40.294;-3.754;2022-10-30T10:16:17;94506.78;;;18.12;58.84
19783;BME280;10051;40.294;-3.754;2022-10-30T10:18:53;94501.78;;;18.02;59.83
19783;BME280;10051;40.294;-3.754;2022-10-30T10:21:24;94541.91;;;18.36;59.47
19783;BME280;10051;40.294;-3.754;2022-10-30T10:23:54;94538.16;;;18.37;59.18
19783;BME280;10051;40.294;-3.754;2022-10-30T10:26:30;94539.09;;;18.41;58.89
19783;BME280;10051;40.294;-3.754;2022-10-30T10:30:08;94544.50;;;18.62;58.33
19783;BME280;10051;40.294;-3.754;2022-10-30T10:43:37;94555.94;;;18.54;60.94
19783;BME280;10051;40.294;-3.754;2022-10-30T10:48:58;94548.66;;;18.33;60.43
19783;BME280;10051;40.294;-3.754;2022-10-30T10:51:51;94561.28;;;18.54;59.91
19783;BME280;10051;40.294;-3.754;2022-10-30T10:54:22;94510.09;;;18.39;59.72
19783;BME280;10051;40.294;-3.754;2022-10-30T10:56:50;94542.56;;;18.71;59.30
19783;BME280;10051;40.294;-3.754;2022-10-30T10:59:22;94428.72;;;18.00;59.20
19783;BME280;10051;40.294;-3.754;2022-10-30T11:02:50;94507.84;;;18.59;59.13
19783;BME280;10051;40.294;-3.754;2022-10-30T11:04:48;94556.09;;;18.96;58.81
19783;BME280;10051;40.294;-3.754;2022-10-30T11:07:25;94566.25;;;18.94;58.73
19783;BME280;10051;40.294;-3.754;2022-10-30T11:09:54;94563.94;;;18.93;58.75
19783;BME280;10051;40.294;-3.754;2022-10-30T11:12:26;94545.66;;;18.82;59.05
19783;BME280;10051;40.294;-3.754;2022-10-30T11:14:53;94538.84;;;18.94;59.58
19783;BME280;10051;40.294;-3.754;2022-10-30T11:18:02;94550.16;;;18.91;59.58
19783;BME280;10051;40.294;-3.754;2022-10-30T11:20:41;94558.53;;;19.10;59.06
19783;BME280;10051;40.294;-3.754;2022-10-30T11:26:00;94537.06;;;19.07;58.58
19783;BME280;10051;40.294;-3.754;2022-10-30T11:31:34;94447.03;;;18.40;58.97
19783;BME280;10051;40.294;-3.754;2022-10-30T11:34:28;94524.13;;;18.96;58.48
19783;BME280;10051;40.294;-3.754;2022-10-30T11:36:55;94495.91;;;18.65;58.76
19783;BME280;10051;40.294;-3.754;2022-10-30T11:39:25;94533.56;;;18.85;59.01
19783;BME280;10051;40.294;-3.754;2022-10-30T11:42:11;94549.78;;;19.01;59.14
19783;BME280;10051;40.294;-3.754;2022-10-30T11:44:56;94532.13;;;18.96;59.08
19783;BME280;10051;40.294;-3.754;2022-10-30T11:47:33;94482.13;;;18.63;59.09
19783;BME280;10051;40.294;-3.754;2022-10-30T11:50:03;94536.81;;;18.99;59.19
19783;BME280;10051;40.294;-3.754;2022-10-30T11:52:37;94549.69;;;19.19;58.82
19783;BME280;10051;40.294;-3.754;2022-10-30T11:55:24;94552.06;;;19.20;58.22
19783;BME280;10051;40.294;-3.754;2022-10-30T11:57:55;94526.50;;;19.19;58.46
19783;BME280;10051;40.294;-3.754;2022-10-30T12:00:26;94550.34;;;19.58;57.87
19783;BME280;10051;40.294;-3.754;2022-10-30T12:02:56;94519.34;;;19.53;57.50
19783;BME280;10051;40.294;-3.754;2022-10-30T12:07:50;94538.69;;;20.05;56.71
19783;BME280;10051;40.294;-3.754;2022-10-30T12:10:27;94537.03;;;20.13;56.33
19783;BME280;10051;40.294;-3.754;2022-10-30T12:12:53;94514.72;;;19.96;56.25
19783;BME280;10051;40.294;-3.754;2022-10-30T12:15:22;94522.00;;;20.08;56.68
19783;BME280;10051;40.294;-3.754;2022-10-30T12:17:52;94522.88;;;20.12;56.69
19783;BME280;10051;40.294;-3.754;2022-10-30T12:20:18;94493.53;;;20.12;56.48
19783;BME280;10051;40.294;-3.754;2022-10-30T12:22:45;94496.63;;;20.14;56.55
19783;BME280;10051;40.294;-3.754;2022-10-30T12:27:50;94490.63;;;20.17;55.76
19783;BME280;10051;40.294;-3.754;2022-10-30T12:30:22;94454.81;;;19.94;55.93
19783;BME280;10051;40.294;-3.754;2022-10-30T12:32:56;94455.56;;;19.94;56.02
19783;BME280;10051;40.294;-3.754;2022-10-30T12:35:38;94471.50;;;20.15;55.73
19783;BME280;10051;40.294;-3.754;2022-10-30T12:38:09;94473.28;;;20.11;55.69
19783;BME280;10051;40.294;-3.754;2022-10-30T12:40:43;94473.97;;;20.20;55.78
19783;BME280;10051;40.294;-3.754;2022-10-30T12:45:44;94420.84;;;19.82;55.51
19783;BME280;10051;40.294;-3.754;2022-10-30T12:53:32;94467.28;;;20.02;55.83
19783;BME280;10051;40.294;-3.754;2022-10-30T12:56:11;94482.50;;;20.01;55.87
19783;BME280;10051;40.294;-3.754;2022-10-30T12:58:50;94445.75;;;19.86;56.58
19783;BME280;10051;40.294;-3.754;2022-10-30T13:06:38;94394.81;;;19.32;57.37
19783;BME280;10051;40.294;-3.754;2022-10-30T13:09:39;94481.22;;;19.86;56.74
19783;BME280;10051;40.294;-3.754;2022-10-30T13:12:26;94455.84;;;19.80;56.93
19783;BME280;10051;40.294;-3.754;2022-10-30T13:14:58;94447.63;;;19.85;56.57
19783;BME280;10051;40.294;-3.754;2022-10-30T13:17:26;94486.94;;;19.97;56.70
19783;BME280;10051;40.294;-3.754;2022-10-30T13:19:53;94470.91;;;19.97;56.51
19783;BME280;10051;40.294;-3.754;2022-10-30T13:24:59;94466.59;;;19.93;56.15
19783;BME280;10051;40.294;-3.754;2022-10-30T13:32:34;94414.13;;;19.63;57.26
19783;BME280;10051;40.294;-3.754;2022-10-30T13:43:41;94409.34;;;19.56;56.94
19783;BME280;10051;40.294;-3.754;2022-10-30T13:51:44;94432.03;;;19.75;56.88
19783;BME280;10051;40.294;-3.754;2022-10-30T13:56:46;94418.16;;;19.69;56.34
19783;BME280;10051;40.294;-3.754;2022-10-30T14:04:52;94450.47;;;19.68;57.22
19783;BME280;10051;40.294;-3.754;2022-10-30T14:10:41;94428.72;;;19.78;57.17
19783;BME280;10051;40.294;-3.754;2022-10-30T14:13:28;94428.16;;;20.06;56.47
19783;BME280;10051;40.294;-3.754;2022-10-30T14:16:32;94421.91;;;20.27;56.05
19783;BME280;10051;40.294;-3.754;2022-10-30T14:19:09;94397.88;;;20.27;55.30
19783;BME280;10051;40.294;-3.754;2022-10-30T14:26:47;94430.13;;;20.84;54.25
19783;BME280;10051;40.294;-3.754;2022-10-30T14:32:01;94440.34;;;20.69;54.57
19783;BME280;10051;40.294;-3.754;2022-10-30T14:37:06;94418.09;;;20.65;54.35
19783;BME280;10051;40.294;-3.754;2022-10-30T14:39:38;94431.91;;;20.79;54.02
19783;BME280;10051;40.294;-3.754;2022-10-30T14:42:10;94392.06;;;20.62;54.04
19783;BME280;10051;40.294;-3.754;2022-10-30T14:45:07;94436.56;;;20.95;53.87
19783;BME280;10051;40.294;-3.754;2022-10-30T14:50:29;94424.03;;;21.12;53.08
19783;BME280;10051;40.294;-3.754;2022-10-30T14:58:35;94365.47;;;20.65;52.55
19783;BME280;10051;40.294;-3.754;2022-10-30T15:03:57;94423.75;;;21.01;53.05
19783;BME280;10051;40.294;-3.754;2022-10-30T15:07:17;94416.41;;;20.98;52.70
19783;BME280;10051;40.294;-3.754;2022-10-30T15:10:02;94423.38;;;21.02;52.79
19783;BME280;10051;40.294;-3.754;2022-10-30T15:17:45;94389.59;;;20.69;52.92